Waskesiu Lake, Canada
Current Conditions -  °F | °C
As of 4:00 PM on Wednesday 22 Oct 2014 (Local Time) from CYPA Reporting Station
Light Rain Light Rain  
Wind Chill: 48°   Ceiling: 7500
Heat Index: 48°   Visibility: 8mi
Dew Point: 48°   Wind: 2mph
Humidity: 100%   Direction: 210°SSW
Pressure: 29.7"   Gusts: NA
Location:  53.92°N, 106.08°W
Report Text: CYPA 222200Z 21002KT 8SM -RA BKN075 BKN250 09/09 A2970 RMK AC7CI1 CI TR SLP071
Loading
Personal Weather Stations






























Interactive Weather Map New forecast layout! Learn more

10-Day Weather Forecast

Advertisements
Track Severe Weather on mobile